Terminal Aerodrome Forecast
Issued by NWS Upton, NY

Home | Current Version | Previous Version | Text Only | Print | Product List | Glossary On
Versions: 1 2 3 4 5 6 7 8 9 10 11 12 13 14 15 16 17 18 19 20 21 22 23 24 25 26 27 28 29 30 31 32 33
000
FTUS41 KOKX 271338 AAA
TAFJFK
TAF AMD
KJFK 271338Z 2714/2818 06009KT 4SM -RA BR BKN008
      TEMPO 2715/2717 2SM -RA BR
     FM271700 03007KT 2SM -RA BR OVC009
     FM271900 04009KT 5SM BR OVC009
     FM280700 04007KT P6SM OVC009
     FM281300 VRB04KT P6SM OVC015
     FM281500 08005KT P6SM BKN025
     FM281700 16006KT P6SM BKN025=

USA.gov is the U.S. government's official web portal to all federal, state and local government web resources and services.